createdAt,value
2019-04-28T00:00:43.241Z,1008.39
2019-04-28T00:01:43.260Z,1008.39
2019-04-28T00:02:43.226Z,1008.43
2019-04-28T00:03:43.224Z,1008.43
2019-04-28T00:04:43.206Z,1008.42
2019-04-28T00:05:43.189Z,1008.48
2019-04-28T00:06:43.178Z,1008.46
2019-04-28T00:07:43.181Z,1008.47
2019-04-28T00:08:43.156Z,1008.50
2019-04-28T00:09:43.141Z,1008.47
2019-04-28T00:10:43.138Z,1008.44
2019-04-28T00:11:43.127Z,1008.42
2019-04-28T00:12:43.126Z,1008.40
2019-04-28T00:13:43.105Z,1008.42
2019-04-28T00:14:43.088Z,1008.44
2019-04-28T00:15:43.081Z,1008.45
2019-04-28T00:16:43.064Z,1008.42
2019-04-28T00:17:43.065Z,1008.41
2019-04-28T00:18:43.049Z,1008.39
2019-04-28T00:19:43.046Z,1008.40
2019-04-28T00:20:43.030Z,1008.40
2019-04-28T00:21:43.011Z,1008.38
2019-04-28T00:22:43.028Z,1008.42
2019-04-28T00:23:42.991Z,1008.37
2019-04-28T00:24:42.983Z,1008.44
2019-04-28T00:25:43.554Z,1008.44
2019-04-28T00:26:42.959Z,1008.44
2019-04-28T00:27:42.965Z,1008.46
2019-04-28T00:28:42.934Z,1008.46
2019-04-28T00:29:45.984Z,1008.50
2019-04-28T00:30:42.915Z,1008.48
2019-04-28T00:31:42.899Z,1008.50
2019-04-28T00:32:42.911Z,1008.50
2019-04-28T00:33:43.577Z,1008.52
2019-04-28T00:34:42.875Z,1008.53
2019-04-28T00:35:42.873Z,1008.57
2019-04-28T00:36:43.176Z,1008.54
2019-04-28T00:37:42.850Z,1008.55
2019-04-28T00:38:42.827Z,1008.54
2019-04-28T00:39:42.818Z,1008.56
2019-04-28T00:40:42.805Z,1008.53
2019-04-28T00:41:42.805Z,1008.55
2019-04-28T00:42:42.805Z,1008.58
2019-04-28T00:43:42.770Z,1008.62
2019-04-28T00:44:43.387Z,1008.63
2019-04-28T00:45:42.767Z,1008.63
2019-04-28T00:46:42.742Z,1008.61
2019-04-28T00:47:42.919Z,1008.63
2019-04-28T00:48:42.716Z,1008.62
2019-04-28T00:49:42.728Z,1008.63
2019-04-28T00:50:43.809Z,1008.62
2019-04-28T00:51:42.686Z,1008.65
2019-04-28T00:52:42.693Z,1008.65
2019-04-28T00:53:42.666Z,1008.68
2019-04-28T00:54:42.658Z,1008.64
2019-04-28T00:55:42.643Z,1008.63
2019-04-28T00:56:42.633Z,1008.66
2019-04-28T00:57:42.634Z,1008.64
2019-04-28T00:58:42.613Z,1008.65
2019-04-28T00:59:54.194Z,1008.68
2019-04-28T01:00:43.587Z,1008.67
2019-04-28T01:01:42.697Z,1008.62
2019-04-28T01:02:42.583Z,1008.68
2019-04-28T01:03:42.555Z,1008.75
2019-04-28T01:04:42.548Z,1008.74
2019-04-28T01:05:42.534Z,1008.73
2019-04-28T01:06:43.072Z,1008.75
2019-04-28T01:07:42.536Z,1008.70
2019-04-28T01:08:42.507Z,1008.64
2019-04-28T01:09:42.493Z,1008.66
2019-04-28T01:10:42.481Z,1008.67
2019-04-28T01:11:42.469Z,1008.69
2019-04-28T01:12:42.458Z,1008.73
2019-04-28T01:13:42.464Z,1008.72
2019-04-28T01:14:43.514Z,1008.71
2019-04-28T01:15:42.424Z,1008.75
2019-04-28T01:16:42.420Z,1008.73
2019-04-28T01:17:42.410Z,1008.74
2019-04-28T01:18:42.792Z,1008.75
2019-04-28T01:19:42.380Z,1008.74
2019-04-28T01:20:42.372Z,1008.82
2019-04-28T01:21:42.392Z,1008.80
2019-04-28T01:22:42.352Z,1008.79
2019-04-28T01:23:42.353Z,1008.83
2019-04-28T01:24:42.339Z,1008.76
2019-04-28T01:25:42.316Z,1008.81
2019-04-28T01:26:42.308Z,1008.82
2019-04-28T01:27:42.292Z,1008.85
2019-04-28T01:28:42.296Z,1008.85
2019-04-28T01:29:42.280Z,1008.89
2019-04-28T01:30:42.266Z,1008.86
2019-04-28T01:31:42.253Z,1008.87
2019-04-28T01:32:42.239Z,1008.90
2019-04-28T01:33:42.244Z,1008.90
2019-04-28T01:34:42.217Z,1008.91
2019-04-28T01:35:42.209Z,1008.91
2019-04-28T01:36:42.195Z,1008.93
2019-04-28T01:37:42.193Z,1008.87
2019-04-28T01:38:42.192Z,1008.94
2019-04-28T01:39:42.165Z,1008.93
2019-04-28T01:40:42.153Z,1008.94
2019-04-28T01:41:42.151Z,1008.92
2019-04-28T01:42:42.138Z,1008.94
2019-04-28T01:43:42.132Z,1008.97
2019-04-28T01:44:42.118Z,1008.94
2019-04-28T01:45:42.109Z,1008.94
2019-04-28T01:46:42.096Z,1008.97
2019-04-28T01:47:42.078Z,1008.98
2019-04-28T01:48:42.080Z,1009.02
2019-04-28T01:49:42.062Z,1009.01
2019-04-28T01:50:42.048Z,1009.01
2019-04-28T01:51:42.036Z,1009.04
2019-04-28T01:52:42.027Z,1009.00
2019-04-28T01:53:42.038Z,1008.98
2019-04-28T01:54:42.005Z,1008.99
2019-04-28T01:55:42.004Z,1009.03
2019-04-28T01:56:41.991Z,1009.00
2019-04-28T01:57:41.976Z,1009.03
2019-04-28T01:58:41.977Z,1009.07
2019-04-28T01:59:41.951Z,1009.06
2019-04-28T02:00:41.942Z,1009.05
2019-04-28T02:01:41.936Z,1009.09
2019-04-28T02:02:41.924Z,1009.08
2019-04-28T02:03:41.932Z,1009.11
2019-04-28T02:04:41.900Z,1009.11
2019-04-28T02:05:41.890Z,1009.06
2019-04-28T02:06:41.876Z,1009.12
2019-04-28T02:07:41.864Z,1009.07
2019-04-28T02:08:41.879Z,1009.12
2019-04-28T02:09:41.846Z,1009.09
2019-04-28T02:10:41.834Z,1009.11
2019-04-28T02:11:41.855Z,1009.17
2019-04-28T02:12:41.815Z,1009.09
2019-04-28T02:13:41.807Z,1009.12
2019-04-28T02:14:41.804Z,1009.12
2019-04-28T02:15:41.781Z,1009.12
2019-04-28T02:16:41.773Z,1009.13
2019-04-28T02:17:41.759Z,1009.13
2019-04-28T02:18:41.758Z,1009.19
2019-04-28T02:19:41.755Z,1009.15
2019-04-28T02:20:41.728Z,1009.16
2019-04-28T02:21:41.717Z,1009.17
2019-04-28T02:22:41.723Z,1009.16
2019-04-28T02:23:41.701Z,1009.21
2019-04-28T02:24:41.707Z,1009.21
2019-04-28T02:25:41.679Z,1009.24
2019-04-28T02:26:41.667Z,1009.25
2019-04-28T02:27:41.660Z,1009.25
2019-04-28T02:28:41.643Z,1009.26
2019-04-28T02:29:41.836Z,1009.23
2019-04-28T02:30:48.881Z,1009.26
2019-04-28T02:31:42.611Z,1009.26
2019-04-28T02:32:41.600Z,1009.26
2019-04-28T02:33:41.587Z,1009.23
2019-04-28T02:34:41.598Z,1009.28
2019-04-28T02:35:42.039Z,1009.30
2019-04-28T02:36:41.555Z,1009.28
2019-04-28T02:37:41.551Z,1009.32
2019-04-28T02:38:41.725Z,1009.34
2019-04-28T02:39:41.541Z,1009.35
2019-04-28T02:40:41.519Z,1009.37
2019-04-28T02:41:41.499Z,1009.39
2019-04-28T02:42:41.498Z,1009.38
2019-04-28T02:43:41.480Z,1009.37
2019-04-28T02:44:41.491Z,1009.38
2019-04-28T02:45:41.551Z,1009.37
2019-04-28T02:46:41.460Z,1009.39
2019-04-28T02:47:42.163Z,1009.35
2019-04-28T02:48:41.432Z,1009.36
2019-04-28T02:49:41.427Z,1009.32
2019-04-28T02:50:41.417Z,1009.36
2019-04-28T02:51:41.397Z,1009.34
2019-04-28T02:52:41.716Z,1009.36
2019-04-28T02:53:41.377Z,1009.38
2019-04-28T02:54:41.362Z,1009.43
2019-04-28T02:55:41.484Z,1009.43
2019-04-28T02:56:43.789Z,1009.40
2019-04-28T02:57:41.356Z,1009.41
2019-04-28T02:58:41.774Z,1009.42
2019-04-28T02:59:44.857Z,1009.47
2019-04-28T03:01:00.410Z,1009.45
2019-04-28T03:01:42.281Z,1009.44
2019-04-28T03:02:41.771Z,1009.44
2019-04-28T03:03:41.312Z,1009.54
2019-04-28T03:04:41.258Z,1009.50
2019-04-28T03:05:41.439Z,1009.52
2019-04-28T03:06:41.231Z,1009.50
2019-04-28T03:07:41.332Z,1009.50
2019-04-28T03:08:41.211Z,1009.49
2019-04-28T03:09:41.209Z,1009.55
2019-04-28T03:10:41.339Z,1009.54
2019-04-28T03:11:43.166Z,1009.61
2019-04-28T03:12:41.685Z,1009.56
2019-04-28T03:13:41.413Z,1009.61
2019-04-28T03:14:44.114Z,1009.59
2019-04-28T03:15:41.512Z,1009.64
2019-04-28T03:16:41.274Z,1009.60
2019-04-28T03:17:41.184Z,1009.64
2019-04-28T03:18:41.464Z,1009.62
2019-04-28T03:19:41.785Z,1009.64
2019-04-28T03:20:42.044Z,1009.59
2019-04-28T03:21:41.725Z,1009.56
2019-04-28T03:22:41.219Z,1009.61
2019-04-28T03:23:41.048Z,1009.58
2019-04-28T03:24:41.473Z,1009.58
2019-04-28T03:25:41.054Z,1009.58
2019-04-28T03:26:41.500Z,1009.60
2019-04-28T03:27:41.003Z,1009.63
2019-04-28T03:28:41.518Z,1009.60
2019-04-28T03:29:40.980Z,1009.61
2019-04-28T03:30:43.936Z,1009.64
2019-04-28T03:32:07.924Z,1009.63
2019-04-28T03:32:52.201Z,1009.67
2019-04-28T03:33:48.594Z,1009.62
2019-04-28T03:34:43.433Z,1009.64
2019-04-28T03:35:43.952Z,1009.65
2019-04-28T03:36:41.100Z,1009.66
2019-04-28T03:37:41.453Z,1009.62
2019-04-28T03:38:40.885Z,1009.67
2019-04-28T03:39:40.873Z,1009.63
2019-04-28T03:40:41.524Z,1009.72
2019-04-28T03:41:40.929Z,1009.67
2019-04-28T03:42:41.197Z,1009.68
2019-04-28T03:43:40.915Z,1009.70
2019-04-28T03:44:41.474Z,1009.74
2019-04-28T03:45:41.178Z,1009.72
2019-04-28T03:46:41.412Z,1009.74
2019-04-28T03:47:41.049Z,1009.73
2019-04-28T03:48:41.122Z,1009.70
2019-04-28T03:49:43.334Z,1009.70
2019-04-28T03:50:41.576Z,1009.69
2019-04-28T03:51:40.993Z,1009.75
2019-04-28T03:52:41.494Z,1009.73
2019-04-28T03:53:41.179Z,1009.81
2019-04-28T03:54:41.208Z,1009.81
2019-04-28T03:55:41.645Z,1009.84
2019-04-28T03:56:41.374Z,1009.80
2019-04-28T03:57:41.338Z,1009.85
2019-04-28T03:58:40.861Z,1009.87
2019-04-28T03:59:43.499Z,1009.89
2019-04-28T04:00:41.035Z,1009.86
2019-04-28T04:01:55.451Z,1009.89
2019-04-28T04:02:41.634Z,1009.89
2019-04-28T04:03:41.670Z,1009.90
2019-04-28T04:04:41.440Z,1009.90
2019-04-28T04:05:40.871Z,1009.87
2019-04-28T04:06:40.960Z,1009.94
2019-04-28T04:07:43.141Z,1009.86
2019-04-28T04:08:41.010Z,1009.93
2019-04-28T04:09:41.387Z,1009.91
2019-04-28T04:10:40.576Z,1009.93
2019-04-28T04:11:41.155Z,1009.92
2019-04-28T04:12:41.369Z,1009.96
2019-04-28T04:13:41.533Z,1009.95
2019-04-28T04:14:41.173Z,1010.00
2019-04-28T04:15:41.306Z,1010.01
2019-04-28T04:16:40.780Z,1010.04
2019-04-28T04:17:41.352Z,1010.00
2019-04-28T04:18:40.905Z,1010.07
2019-04-28T04:19:40.819Z,1010.05
2019-04-28T04:20:41.134Z,1010.06
2019-04-28T04:21:40.880Z,1010.06
2019-04-28T04:22:41.164Z,1010.07
2019-04-28T04:23:41.109Z,1010.07
2019-04-28T04:24:40.641Z,1010.06
2019-04-28T04:25:41.601Z,1010.09
2019-04-28T04:26:41.089Z,1010.06
2019-04-28T04:27:40.680Z,1010.10
2019-04-28T04:28:41.614Z,1010.11
2019-04-28T04:29:43.254Z,1010.09
2019-04-28T04:30:41.089Z,1010.12
2019-04-28T04:31:41.366Z,1010.17
2019-04-28T04:32:41.066Z,1010.20
2019-04-28T04:33:41.285Z,1010.15
2019-04-28T04:34:40.867Z,1010.20
2019-04-28T04:35:41.170Z,1010.16
2019-04-28T04:36:41.730Z,1010.19
2019-04-28T04:37:40.675Z,1010.11
2019-04-28T04:38:45.980Z,1010.26
2019-04-28T04:39:41.228Z,1010.23
2019-04-28T04:40:41.260Z,1010.30
2019-04-28T04:41:43.256Z,1010.29
2019-04-28T04:42:40.582Z,1010.29
2019-04-28T04:43:41.512Z,1010.33
2019-04-28T04:44:41.547Z,1010.38
2019-04-28T04:45:40.632Z,1010.40
2019-04-28T04:46:41.479Z,1010.41
2019-04-28T04:47:40.664Z,1010.45
2019-04-28T04:48:40.818Z,1010.41
2019-04-28T04:49:40.544Z,1010.44
2019-04-28T04:50:41.138Z,1010.43
2019-04-28T04:51:40.758Z,1010.39
2019-04-28T04:52:40.438Z,1010.42
2019-04-28T04:53:40.721Z,1010.44
2019-04-28T04:54:40.302Z,1010.42
2019-04-28T04:55:40.903Z,1010.43
2019-04-28T04:56:40.296Z,1010.37
2019-04-28T04:57:40.795Z,1010.39
2019-04-28T04:58:40.660Z,1010.42
2019-04-28T04:59:40.303Z,1010.38
2019-04-28T05:00:40.506Z,1010.34
2019-04-28T05:01:40.659Z,1010.31
2019-04-28T05:02:44.767Z,1010.35
2019-04-28T05:03:40.971Z,1010.42
2019-04-28T05:04:39.999Z,1010.43
2019-04-28T05:05:40.450Z,1010.51
2019-04-28T05:06:41.543Z,1010.54
2019-04-28T05:07:39.927Z,1010.58
2019-04-28T05:08:40.039Z,1010.57
2019-04-28T05:09:39.919Z,1010.58
2019-04-28T05:10:40.409Z,1010.62
2019-04-28T05:11:40.244Z,1010.64
2019-04-28T05:12:40.362Z,1010.62
2019-04-28T05:13:40.009Z,1010.65
2019-04-28T05:14:39.876Z,1010.68
2019-04-28T05:15:40.170Z,1010.67
2019-04-28T05:16:40.119Z,1010.64
2019-04-28T05:17:40.245Z,1010.67
2019-04-28T05:18:41.753Z,1010.70
2019-04-28T05:19:40.229Z,1010.71
2019-04-28T05:20:40.329Z,1010.69
2019-04-28T05:21:40.306Z,1010.73
2019-04-28T05:22:40.040Z,1010.78
2019-04-28T05:23:40.051Z,1010.80
2019-04-28T05:24:40.350Z,1010.81
2019-04-28T05:25:39.749Z,1010.88
2019-04-28T05:26:42.594Z,1010.84
2019-04-28T05:27:40.716Z,1010.89
2019-04-28T05:28:43.907Z,1010.95
2019-04-28T05:29:40.689Z,1010.94
2019-04-28T05:30:42.869Z,1010.97
2019-04-28T05:31:40.170Z,1011.01
2019-04-28T05:32:45.249Z,1011.08
2019-04-28T05:33:42.078Z,1011.04
2019-04-28T05:34:46.346Z,1011.06
2019-04-28T05:35:40.639Z,1011.08
2019-04-28T05:36:44.304Z,1011.09
2019-04-28T05:37:40.633Z,1011.13
2019-04-28T05:38:40.502Z,1011.15
2019-04-28T05:39:40.485Z,1011.15
2019-04-28T05:40:39.972Z,1011.20
2019-04-28T05:41:40.070Z,1011.23
2019-04-28T05:42:39.560Z,1011.30
2019-04-28T05:43:40.462Z,1011.29
2019-04-28T05:44:40.790Z,1011.34
2019-04-28T05:45:39.796Z,1011.33
2019-04-28T05:46:40.270Z,1011.28
2019-04-28T05:47:40.812Z,1011.33
2019-04-28T05:48:40.797Z,1011.26
2019-04-28T05:49:39.802Z,1011.26
2019-04-28T05:50:40.084Z,1011.32
2019-04-28T05:51:40.209Z,1011.30
2019-04-28T05:52:40.357Z,1011.32
2019-04-28T05:53:40.284Z,1011.32
2019-04-28T05:54:40.368Z,1011.37
2019-04-28T05:55:41.730Z,1011.39
2019-04-28T05:56:39.834Z,1011.32
2019-04-28T05:57:39.841Z,1011.36
2019-04-28T05:58:40.262Z,1011.35
2019-04-28T05:59:40.333Z,1011.33
2019-04-28T06:00:39.699Z,1011.28
2019-04-28T06:01:40.625Z,1011.30
2019-04-28T06:02:40.889Z,1011.30
2019-04-28T06:03:40.592Z,1011.28
2019-04-28T06:04:40.538Z,1011.24
2019-04-28T06:05:39.572Z,1011.24
2019-04-28T06:06:40.545Z,1011.30
2019-04-28T06:07:40.544Z,1011.25
2019-04-28T06:08:40.763Z,1011.24
2019-04-28T06:09:39.861Z,1011.24
2019-04-28T06:10:39.921Z,1011.20
2019-04-28T06:11:39.832Z,1011.25
2019-04-28T06:12:40.573Z,1011.21
2019-04-28T06:13:40.180Z,1011.21
2019-04-28T06:14:40.266Z,1011.23
2019-04-28T06:15:39.716Z,1011.24
2019-04-28T06:16:40.719Z,1011.26
2019-04-28T06:17:39.770Z,1011.24
2019-04-28T06:18:39.508Z,1011.21
2019-04-28T06:19:40.322Z,1011.20
2019-04-28T06:20:40.639Z,1011.26
2019-04-28T06:21:39.146Z,1011.22
2019-04-28T06:22:39.154Z,1011.20
2019-04-28T06:23:39.146Z,1011.21
2019-04-28T06:24:39.129Z,1011.24
2019-04-28T06:25:39.109Z,1011.21
2019-04-28T06:26:39.104Z,1011.25
2019-04-28T06:27:39.091Z,1011.17
2019-04-28T06:28:39.094Z,1011.25
2019-04-28T06:29:39.069Z,1011.21
2019-04-28T06:30:39.056Z,1011.26
2019-04-28T06:31:39.046Z,1011.29
2019-04-28T06:32:39.039Z,1011.28
2019-04-28T06:33:39.057Z,1011.30
2019-04-28T06:34:39.019Z,1011.27
2019-04-28T06:35:39.013Z,1011.30
2019-04-28T06:36:39.001Z,1011.31
2019-04-28T06:37:38.984Z,1011.33
2019-04-28T06:38:38.976Z,1011.37
2019-04-28T06:39:38.977Z,1011.42
2019-04-28T06:40:38.955Z,1011.37
2019-04-28T06:41:38.945Z,1011.40
2019-04-28T06:42:38.931Z,1011.36
2019-04-28T06:43:38.927Z,1011.41
2019-04-28T06:44:38.931Z,1011.38
2019-04-28T06:45:38.900Z,1011.41
2019-04-28T06:46:38.902Z,1011.43
2019-04-28T06:47:38.884Z,1011.42
2019-04-28T06:48:38.873Z,1011.38
2019-04-28T06:49:38.879Z,1011.44
2019-04-28T06:50:38.850Z,1011.40
2019-04-28T06:51:38.838Z,1011.47
2019-04-28T06:52:38.834Z,1011.47
2019-04-28T06:53:38.820Z,1011.46
2019-04-28T06:54:38.831Z,1011.54
2019-04-28T06:55:38.880Z,1011.53
2019-04-28T06:56:38.827Z,1011.51
2019-04-28T06:57:38.778Z,1011.52
2019-04-28T06:58:38.768Z,1011.48
2019-04-28T06:59:38.763Z,1011.57
2019-04-28T07:00:38.764Z,1011.46
2019-04-28T07:01:38.735Z,1011.55
2019-04-28T07:02:38.726Z,1011.54
2019-04-28T07:03:38.719Z,1011.54
2019-04-28T07:04:38.700Z,1011.51
2019-04-28T07:05:38.706Z,1011.51
2019-04-28T07:06:38.678Z,1011.56
2019-04-28T07:07:38.673Z,1011.58
2019-04-28T07:08:38.663Z,1011.59
2019-04-28T07:09:38.651Z,1011.57
2019-04-28T07:10:38.650Z,1011.57
2019-04-28T07:11:38.635Z,1011.56
2019-04-28T07:12:38.628Z,1011.58
2019-04-28T07:13:38.609Z,1011.57
2019-04-28T07:14:38.600Z,1011.60
2019-04-28T07:15:38.618Z,1011.65
2019-04-28T07:16:38.579Z,1011.59
2019-04-28T07:17:38.569Z,1011.60
2019-04-28T07:18:38.554Z,1011.63
2019-04-28T07:19:38.571Z,1011.68
2019-04-28T07:20:38.535Z,1011.67
2019-04-28T07:21:38.543Z,1011.66
2019-04-28T07:22:38.524Z,1011.67
2019-04-28T07:23:38.510Z,1011.66
2019-04-28T07:24:38.505Z,1011.70
2019-04-28T07:25:38.485Z,1011.71
2019-04-28T07:26:38.491Z,1011.71
2019-04-28T07:27:38.460Z,1011.77
2019-04-28T07:28:38.462Z,1011.80
2019-04-28T07:29:38.450Z,1011.78
2019-04-28T07:30:38.439Z,1011.77
2019-04-28T07:31:38.451Z,1011.82
2019-04-28T07:32:38.448Z,1011.81
2019-04-28T07:33:38.406Z,1011.80
2019-04-28T07:34:38.413Z,1011.83
2019-04-28T07:35:38.381Z,1011.85
2019-04-28T07:36:38.366Z,1011.82
2019-04-28T07:37:38.374Z,1011.85
2019-04-28T07:38:38.351Z,1011.84
2019-04-28T07:39:38.347Z,1011.83
2019-04-28T07:40:38.332Z,1011.88
2019-04-28T07:41:38.375Z,1011.88
2019-04-28T07:42:38.340Z,1011.89
2019-04-28T07:43:38.298Z,1011.93
2019-04-28T07:44:38.288Z,1011.90
2019-04-28T07:45:38.280Z,1011.91
2019-04-28T07:46:38.286Z,1011.92
2019-04-28T07:47:38.281Z,1011.95
2019-04-28T07:48:38.240Z,1011.98
2019-04-28T07:49:38.235Z,1011.95
2019-04-28T07:50:38.269Z,1011.98
2019-04-28T07:51:38.221Z,1012.00
2019-04-28T07:52:38.223Z,1012.04
2019-04-28T07:53:38.191Z,1012.04
2019-04-28T07:54:40.089Z,1012.08
2019-04-28T07:55:38.174Z,1012.04
2019-04-28T07:56:38.159Z,1012.08
2019-04-28T07:57:38.184Z,1012.11
2019-04-28T07:58:38.134Z,1012.19
2019-04-28T07:59:38.133Z,1012.07
2019-04-28T08:00:38.121Z,1012.21
2019-04-28T08:01:38.107Z,1012.18
2019-04-28T08:02:38.143Z,1012.18
2019-04-28T08:03:48.856Z,1012.25
2019-04-28T08:04:39.077Z,1012.25
2019-04-28T08:05:38.068Z,1012.21
2019-04-28T08:06:38.070Z,1012.26
2019-04-28T08:07:38.046Z,1012.26
2019-04-28T08:08:38.062Z,1012.25
2019-04-28T08:09:38.028Z,1012.25
2019-04-28T08:10:38.012Z,1012.27
2019-04-28T08:11:38.003Z,1012.36
2019-04-28T08:12:37.993Z,1012.33
2019-04-28T08:13:38.082Z,1012.35
2019-04-28T08:14:37.976Z,1012.33
2019-04-28T08:15:37.960Z,1012.44
2019-04-28T08:16:37.952Z,1012.43
2019-04-28T08:17:37.941Z,1012.43
2019-04-28T08:18:37.935Z,1012.40
2019-04-28T08:19:37.937Z,1012.43
2019-04-28T08:20:37.908Z,1012.45
2019-04-28T08:21:37.898Z,1012.42
2019-04-28T08:22:37.887Z,1012.43
2019-04-28T08:23:46.942Z,1012.42
2019-04-28T08:24:38.924Z,1012.50
2019-04-28T08:25:37.869Z,1012.53
2019-04-28T08:26:37.851Z,1012.50
2019-04-28T08:27:37.834Z,1012.48
2019-04-28T08:28:37.822Z,1012.56
2019-04-28T08:29:37.819Z,1012.53
2019-04-28T08:30:37.816Z,1012.55
2019-04-28T08:31:37.796Z,1012.53
2019-04-28T08:32:37.783Z,1012.56
2019-04-28T08:33:37.778Z,1012.53
2019-04-28T08:34:37.769Z,1012.62
2019-04-28T08:35:37.766Z,1012.60
2019-04-28T08:36:37.739Z,1012.62
2019-04-28T08:37:37.733Z,1012.62
2019-04-28T08:38:37.722Z,1012.66
2019-04-28T08:39:37.719Z,1012.60
2019-04-28T08:40:37.719Z,1012.69
2019-04-28T08:41:37.700Z,1012.70
2019-04-28T08:42:37.683Z,1012.71
2019-04-28T08:43:37.687Z,1012.64
2019-04-28T08:44:37.662Z,1012.75
2019-04-28T08:45:37.659Z,1012.75
2019-04-28T08:46:37.641Z,1012.73
2019-04-28T08:47:37.628Z,1012.78
2019-04-28T08:48:37.675Z,1012.77
2019-04-28T08:49:37.602Z,1012.82
2019-04-28T08:50:37.630Z,1012.80
2019-04-28T08:51:37.586Z,1012.79
2019-04-28T08:52:37.574Z,1012.83
2019-04-28T08:53:37.562Z,1012.92
2019-04-28T08:54:37.559Z,1012.94
2019-04-28T08:55:37.543Z,1012.89
2019-04-28T08:56:37.553Z,1012.93
2019-04-28T08:57:37.536Z,1012.94
2019-04-28T08:58:37.609Z,1013.02
2019-04-28T08:59:37.512Z,1013.00
2019-04-28T09:00:37.488Z,1013.00
2019-04-28T09:01:37.496Z,1013.06
2019-04-28T09:02:37.474Z,1013.01
2019-04-28T09:03:37.457Z,1013.02
2019-04-28T09:04:37.452Z,1013.07
2019-04-28T09:05:37.440Z,1013.00
2019-04-28T09:06:37.464Z,1013.07
2019-04-28T09:07:37.434Z,1013.08
2019-04-28T09:08:37.421Z,1013.09
2019-04-28T09:09:37.396Z,1013.11
2019-04-28T09:10:37.389Z,1013.09
2019-04-28T09:11:37.397Z,1013.07
2019-04-28T09:12:37.389Z,1013.13
2019-04-28T09:13:37.353Z,1013.10
2019-04-28T09:14:37.346Z,1013.11
2019-04-28T09:15:37.331Z,1013.11
2019-04-28T09:16:37.330Z,1013.13
2019-04-28T09:17:37.333Z,1013.09
2019-04-28T09:18:37.302Z,1013.09
2019-04-28T09:19:37.292Z,1013.15
2019-04-28T09:20:37.280Z,1013.13
2019-04-28T09:21:37.275Z,1013.18
2019-04-28T09:22:37.282Z,1013.15
2019-04-28T09:23:37.244Z,1013.21
2019-04-28T09:24:37.245Z,1013.20
2019-04-28T09:25:37.235Z,1013.16
2019-04-28T09:26:37.272Z,1013.15
2019-04-28T09:27:37.230Z,1013.11
2019-04-28T09:28:37.191Z,1013.21
2019-04-28T09:29:37.181Z,1013.18
2019-04-28T09:30:37.172Z,1013.20
2019-04-28T09:31:37.158Z,1013.19
2019-04-28T09:32:37.154Z,1013.22
2019-04-28T09:33:37.170Z,1013.20
2019-04-28T09:34:37.138Z,1013.19
2019-04-28T09:35:37.123Z,1013.23
2019-04-28T09:36:37.121Z,1013.26
2019-04-28T09:37:37.107Z,1013.23
2019-04-28T09:38:37.122Z,1013.20
2019-04-28T09:39:37.080Z,1013.22
2019-04-28T09:40:37.066Z,1013.26
2019-04-28T09:41:37.075Z,1013.28
2019-04-28T09:42:37.044Z,1013.25
2019-04-28T09:43:37.056Z,1013.24
2019-04-28T09:44:37.028Z,1013.27
2019-04-28T09:45:37.018Z,1013.27
2019-04-28T09:46:37.018Z,1013.24
2019-04-28T09:47:37.001Z,1013.30
2019-04-28T09:48:37.015Z,1013.26
2019-04-28T09:49:36.973Z,1013.26
2019-04-28T09:50:36.964Z,1013.34
2019-04-28T09:51:36.955Z,1013.30
2019-04-28T09:52:36.937Z,1013.36
2019-04-28T09:53:36.946Z,1013.39
2019-04-28T09:54:36.921Z,1013.39
2019-04-28T09:55:36.915Z,1013.38
2019-04-28T09:56:36.898Z,1013.38
2019-04-28T09:57:36.910Z,1013.40
2019-04-28T09:58:36.888Z,1013.41
2019-04-28T09:59:36.869Z,1013.42
2019-04-28T10:00:36.867Z,1013.47
2019-04-28T10:01:36.847Z,1013.44
2019-04-28T10:02:36.839Z,1013.47
2019-04-28T10:03:36.848Z,1013.48
2019-04-28T10:04:41.727Z,1013.50
2019-04-28T10:05:37.829Z,1013.48
2019-04-28T10:06:36.790Z,1013.50
2019-04-28T10:07:36.782Z,1013.51
2019-04-28T10:08:36.799Z,1013.53
2019-04-28T10:09:36.790Z,1013.49
2019-04-28T10:10:36.753Z,1013.48
2019-04-28T10:11:36.743Z,1013.50
2019-04-28T10:12:36.733Z,1013.51
2019-04-28T10:13:36.730Z,1013.48
2019-04-28T10:14:36.755Z,1013.46
2019-04-28T10:15:36.697Z,1013.52
2019-04-28T10:16:36.699Z,1013.55
2019-04-28T10:17:36.681Z,1013.45
2019-04-28T10:18:36.661Z,1013.52
2019-04-28T10:19:36.730Z,1013.50
2019-04-28T10:20:36.656Z,1013.50
2019-04-28T10:21:36.646Z,1013.54
2019-04-28T10:22:36.630Z,1013.56
2019-04-28T10:23:36.624Z,1013.50
2019-04-28T10:24:36.603Z,1013.52
2019-04-28T10:25:36.604Z,1013.61
2019-04-28T10:26:36.578Z,1013.52
2019-04-28T10:27:36.571Z,1013.62
2019-04-28T10:28:36.564Z,1013.56
2019-04-28T10:29:36.555Z,1013.58
2019-04-28T10:30:36.571Z,1013.56
2019-04-28T10:31:36.556Z,1013.52
2019-04-28T10:32:36.525Z,1013.57
2019-04-28T10:33:36.512Z,1013.57
2019-04-28T10:34:36.492Z,1013.57
2019-04-28T10:35:36.489Z,1013.57
2019-04-28T10:36:36.498Z,1013.52
2019-04-28T10:37:36.465Z,1013.59
2019-04-28T10:38:36.447Z,1013.52
2019-04-28T10:39:36.451Z,1013.57
2019-04-28T10:40:36.430Z,1013.55
2019-04-28T10:41:36.440Z,1013.55
2019-04-28T10:42:36.406Z,1013.60
2019-04-28T10:43:36.407Z,1013.56
2019-04-28T10:44:36.390Z,1013.53
2019-04-28T10:45:36.377Z,1013.52
2019-04-28T10:46:36.386Z,1013.54
2019-04-28T10:47:36.362Z,1013.50
2019-04-28T10:48:36.348Z,1013.55
2019-04-28T10:49:36.342Z,1013.51
2019-04-28T10:50:36.334Z,1013.52
2019-04-28T10:51:36.327Z,1013.54
2019-04-28T10:52:36.303Z,1013.57
2019-04-28T10:53:36.290Z,1013.59
2019-04-28T10:54:36.271Z,1013.54
2019-04-28T10:55:36.272Z,1013.58
2019-04-28T10:56:36.290Z,1013.60
2019-04-28T10:57:36.288Z,1013.59
2019-04-28T10:58:36.234Z,1013.61
2019-04-28T10:59:36.217Z,1013.60
2019-04-28T11:00:36.215Z,1013.59
2019-04-28T11:01:36.201Z,1013.58
2019-04-28T11:02:36.206Z,1013.62
2019-04-28T11:03:36.227Z,1013.57
2019-04-28T11:04:36.178Z,1013.58
2019-04-28T11:05:36.164Z,1013.63
2019-04-28T11:06:36.192Z,1013.67
2019-04-28T11:07:36.223Z,1013.60
2019-04-28T11:08:36.142Z,1013.62
2019-04-28T11:09:36.112Z,1013.66
2019-04-28T11:10:36.107Z,1013.72
2019-04-28T11:11:36.126Z,1013.68
2019-04-28T11:12:36.099Z,1013.68
2019-04-28T11:13:36.945Z,1013.64
2019-04-28T11:14:36.061Z,1013.60
2019-04-28T11:15:36.058Z,1013.67
2019-04-28T11:16:36.052Z,1013.69
2019-04-28T11:17:36.027Z,1013.68
2019-04-28T11:18:36.046Z,1013.68
2019-04-28T11:19:36.014Z,1013.64
2019-04-28T11:20:36.007Z,1013.67
2019-04-28T11:21:35.988Z,1013.72
2019-04-28T11:22:35.987Z,1013.70
2019-04-28T11:23:35.998Z,1013.67
2019-04-28T11:24:35.958Z,1013.63
2019-04-28T11:25:36.006Z,1013.68
2019-04-28T11:26:35.988Z,1013.65
2019-04-28T11:27:35.940Z,1013.64
2019-04-28T11:28:37.883Z,1013.69
2019-04-28T11:29:35.943Z,1013.72
2019-04-28T11:30:35.963Z,1013.75
2019-04-28T11:31:35.894Z,1013.73
2019-04-28T11:32:35.878Z,1013.73
2019-04-28T11:33:35.860Z,1013.73
2019-04-28T11:34:35.864Z,1013.74
2019-04-28T11:35:35.914Z,1013.73
2019-04-28T11:36:35.838Z,1013.73
2019-04-28T11:37:35.828Z,1013.81
2019-04-28T11:38:35.805Z,1013.81
2019-04-28T11:39:35.817Z,1013.75
2019-04-28T11:40:35.786Z,1013.75
2019-04-28T11:41:35.775Z,1013.79
2019-04-28T11:42:35.790Z,1013.75
2019-04-28T11:43:35.754Z,1013.78
2019-04-28T11:44:35.774Z,1013.80
2019-04-28T11:45:35.731Z,1013.78
2019-04-28T11:46:35.741Z,1013.83
2019-04-28T11:47:35.722Z,1013.81
2019-04-28T11:48:35.726Z,1013.79
2019-04-28T11:49:35.727Z,1013.82
2019-04-28T11:50:35.677Z,1013.82
2019-04-28T11:51:35.693Z,1013.82
2019-04-28T11:52:35.659Z,1013.86
2019-04-28T11:53:35.644Z,1013.92
2019-04-28T11:54:35.647Z,1013.88
2019-04-28T11:55:35.623Z,1013.84
2019-04-28T11:56:41.666Z,1013.82
2019-04-28T11:57:36.603Z,1013.81
2019-04-28T11:58:35.696Z,1013.84
2019-04-28T11:59:35.619Z,1013.84
2019-04-28T12:00:35.569Z,1013.83
2019-04-28T12:01:35.557Z,1013.85
2019-04-28T12:02:35.559Z,1013.81
2019-04-28T12:03:35.537Z,1013.81
2019-04-28T12:04:35.526Z,1013.86
2019-04-28T12:05:38.343Z,1013.86